sensor_id;sensor_type;location;lat;lon;timestamp;pressure;altitude;pressure_sealevel;temperature;humidity
22257;BME280;11297;42.686;23.374;2022-10-16T00:00:41;95643.09;;;14.21;60.57
22257;BME280;11297;42.686;23.374;2022-10-16T00:03:07;95641.88;;;14.19;60.75
22257;BME280;11297;42.686;23.374;2022-10-16T00:05:38;95646.34;;;14.18;60.73
22257;BME280;11297;42.686;23.374;2022-10-16T00:08:05;95647.09;;;14.19;60.41
22257;BME280;11297;42.686;23.374;2022-10-16T00:10:30;95643.38;;;14.11;60.95
22257;BME280;11297;42.686;23.374;2022-10-16T00:12:56;95643.09;;;14.13;60.93
22257;BME280;11297;42.686;23.374;2022-10-16T00:15:21;95653.53;;;14.13;60.79
22257;BME280;11297;42.686;23.374;2022-10-16T00:17:47;95645.97;;;14.03;60.88
22257;BME280;11297;42.686;23.374;2022-10-16T00:20:12;95658.63;;;14.09;60.91
22257;BME280;11297;42.686;23.374;2022-10-16T00:22:37;95661.22;;;14.09;60.97
22257;BME280;11297;42.686;23.374;2022-10-16T00:25:03;95660.16;;;14.10;60.90
22257;BME280;11297;42.686;23.374;2022-10-16T00:27:29;95657.69;;;14.14;61.05
22257;BME280;11297;42.686;23.374;2022-10-16T00:29:54;95660.47;;;14.09;60.98
22257;BME280;11297;42.686;23.374;2022-10-16T00:32:20;95668.91;;;14.06;61.19
22257;BME280;11297;42.686;23.374;2022-10-16T00:34:45;95665.63;;;14.00;61.42
22257;BME280;11297;42.686;23.374;2022-10-16T00:37:12;95668.41;;;13.95;61.00
22257;BME280;11297;42.686;23.374;2022-10-16T00:39:37;95668.81;;;13.89;61.33
22257;BME280;11297;42.686;23.374;2022-10-16T00:42:03;95673.88;;;13.85;61.05
22257;BME280;11297;42.686;23.374;2022-10-16T00:45:01;95669.88;;;13.80;60.79
22257;BME280;11297;42.686;23.374;2022-10-16T00:47:31;95673.22;;;13.72;61.03
22257;BME280;11297;42.686;23.374;2022-10-16T00:50:11;95664.75;;;13.66;61.51
22257;BME280;11297;42.686;23.374;2022-10-16T00:52:43;95659.38;;;13.63;61.50
22257;BME280;11297;42.686;23.374;2022-10-16T00:55:10;95659.69;;;13.61;61.45
22257;BME280;11297;42.686;23.374;2022-10-16T00:57:36;95659.19;;;13.59;61.45
22257;BME280;11297;42.686;23.374;2022-10-16T01:00:07;95660.59;;;13.57;61.29
22257;BME280;11297;42.686;23.374;2022-10-16T01:02:32;95667.94;;;13.55;61.29
22257;BME280;11297;42.686;23.374;2022-10-16T01:04:58;95669.31;;;13.52;61.54
22257;BME280;11297;42.686;23.374;2022-10-16T01:20:30;95669.31;;;13.52;61.57
22257;BME280;11297;42.686;23.374;2022-10-16T01:28:12;95662.41;;;12.96;63.69
22257;BME280;11297;42.686;23.374;2022-10-16T01:30:42;95659.88;;;12.83;64.77
22257;BME280;11297;42.686;23.374;2022-10-16T01:33:28;95662.53;;;12.78;65.24
22257;BME280;11297;42.686;23.374;2022-10-16T01:35:59;95659.00;;;12.74;65.42
22257;BME280;11297;42.686;23.374;2022-10-16T01:38:38;95671.31;;;12.82;64.94
22257;BME280;11297;42.686;23.374;2022-10-16T01:41:09;95662.03;;;12.89;64.96
22257;BME280;11297;42.686;23.374;2022-10-16T01:43:43;95661.63;;;12.95;64.60
22257;BME280;11297;42.686;23.374;2022-10-16T01:46:12;95666.13;;;13.03;64.17
22257;BME280;11297;42.686;23.374;2022-10-16T01:48:39;95679.22;;;13.12;63.99
22257;BME280;11297;42.686;23.374;2022-10-16T01:51:08;95660.44;;;13.01;63.42
22257;BME280;11297;42.686;23.374;2022-10-16T01:53:36;95677.72;;;13.19;62.90
22257;BME280;11297;42.686;23.374;2022-10-16T01:56:03;95674.66;;;13.17;62.83
22257;BME280;11297;42.686;23.374;2022-10-16T01:58:34;95686.66;;;13.27;62.21
22257;BME280;11297;42.686;23.374;2022-10-16T02:01:04;95675.47;;;13.26;61.74
22257;BME280;11297;42.686;23.374;2022-10-16T02:03:31;95682.69;;;13.29;61.47
22257;BME280;11297;42.686;23.374;2022-10-16T02:05:58;95681.63;;;13.30;61.21
22257;BME280;11297;42.686;23.374;2022-10-16T02:08:26;95687.91;;;13.29;61.19
22257;BME280;11297;42.686;23.374;2022-10-16T02:10:55;95690.16;;;13.22;61.05
22257;BME280;11297;42.686;23.374;2022-10-16T02:13:29;95698.88;;;13.18;61.06
22257;BME280;11297;42.686;23.374;2022-10-16T02:15:56;95698.25;;;13.12;61.38
22257;BME280;11297;42.686;23.374;2022-10-16T02:18:22;95702.94;;;13.02;61.63
22257;BME280;11297;42.686;23.374;2022-10-16T02:21:04;95697.28;;;12.87;61.85
22257;BME280;11297;42.686;23.374;2022-10-16T02:25:59;95705.81;;;12.79;62.06
22257;BME280;11297;42.686;23.374;2022-10-16T02:28:37;95702.81;;;12.72;61.92
22257;BME280;11297;42.686;23.374;2022-10-16T02:31:09;95705.13;;;12.73;62.12
22257;BME280;11297;42.686;23.374;2022-10-16T02:33:38;95710.00;;;12.66;62.21
22257;BME280;11297;42.686;23.374;2022-10-16T02:36:05;95708.28;;;12.62;61.89
22257;BME280;11297;42.686;23.374;2022-10-16T02:38:32;95700.31;;;12.32;62.77
22257;BME280;11297;42.686;23.374;2022-10-16T02:40:58;95697.94;;;12.22;62.61
22257;BME280;11297;42.686;23.374;2022-10-16T02:43:24;95712.03;;;12.21;62.98
22257;BME280;11297;42.686;23.374;2022-10-16T02:45:50;95709.88;;;12.23;62.84
22257;BME280;11297;42.686;23.374;2022-10-16T02:48:15;95709.31;;;12.26;62.78
22257;BME280;11297;42.686;23.374;2022-10-16T02:50:41;95713.63;;;12.30;62.53
22257;BME280;11297;42.686;23.374;2022-10-16T02:53:06;95715.66;;;12.33;62.35
22257;BME280;11297;42.686;23.374;2022-10-16T02:55:32;95716.91;;;12.36;61.88
22257;BME280;11297;42.686;23.374;2022-10-16T02:57:57;95722.03;;;12.27;62.14
22257;BME280;11297;42.686;23.374;2022-10-16T03:00:22;95719.25;;;12.24;62.15
22257;BME280;11297;42.686;23.374;2022-10-16T03:02:48;95729.19;;;12.22;62.15
22257;BME280;11297;42.686;23.374;2022-10-16T03:05:14;95721.47;;;12.17;62.43
22257;BME280;11297;42.686;23.374;2022-10-16T03:07:39;95721.00;;;12.15;62.89
22257;BME280;11297;42.686;23.374;2022-10-16T03:10:05;95725.75;;;12.13;62.57
22257;BME280;11297;42.686;23.374;2022-10-16T03:12:31;95726.22;;;12.15;62.98
22257;BME280;11297;42.686;23.374;2022-10-16T03:14:57;95722.06;;;12.14;62.47
22257;BME280;11297;42.686;23.374;2022-10-16T03:17:22;95730.53;;;12.19;63.17
22257;BME280;11297;42.686;23.374;2022-10-16T03:19:48;95736.72;;;12.23;63.04
22257;BME280;11297;42.686;23.374;2022-10-16T03:22:13;95735.06;;;12.27;62.86
22257;BME280;11297;42.686;23.374;2022-10-16T03:24:39;95737.59;;;12.32;63.03
22257;BME280;11297;42.686;23.374;2022-10-16T03:27:04;95732.25;;;12.37;62.92
22257;BME280;11297;42.686;23.374;2022-10-16T03:29:30;95729.06;;;12.40;63.01
22257;BME280;11297;42.686;23.374;2022-10-16T03:31:57;95742.88;;;12.40;62.98
22257;BME280;11297;42.686;23.374;2022-10-16T03:34:22;95734.41;;;12.35;63.17
22257;BME280;11297;42.686;23.374;2022-10-16T03:36:48;95735.44;;;12.34;63.25
22257;BME280;11297;42.686;23.374;2022-10-16T03:39:13;95732.47;;;12.27;63.31
22257;BME280;11297;42.686;23.374;2022-10-16T03:41:39;95746.56;;;12.26;63.32
22257;BME280;11297;42.686;23.374;2022-10-16T03:44:04;95727.84;;;11.97;63.94
22257;BME280;11297;42.686;23.374;2022-10-16T03:46:30;95743.28;;;11.94;64.16
22257;BME280;11297;42.686;23.374;2022-10-16T03:48:55;95738.94;;;11.90;64.50
22257;BME280;11297;42.686;23.374;2022-10-16T03:51:20;95735.06;;;11.87;64.62
22257;BME280;11297;42.686;23.374;2022-10-16T03:53:46;95727.25;;;11.74;65.02
22257;BME280;11297;42.686;23.374;2022-10-16T03:56:11;95729.97;;;11.69;65.31
22257;BME280;11297;42.686;23.374;2022-10-16T03:58:36;95729.97;;;11.69;65.42
22257;BME280;11297;42.686;23.374;2022-10-16T04:01:02;95725.16;;;11.76;65.27
22257;BME280;11297;42.686;23.374;2022-10-16T04:03:27;95732.88;;;11.81;64.90
22257;BME280;11297;42.686;23.374;2022-10-16T04:05:53;95723.91;;;11.87;64.43
22257;BME280;11297;42.686;23.374;2022-10-16T04:08:18;95726.09;;;11.93;64.13
22257;BME280;11297;42.686;23.374;2022-10-16T04:10:44;95729.69;;;11.97;63.95
22257;BME280;11297;42.686;23.374;2022-10-16T04:13:09;95729.00;;;12.05;63.55
22257;BME280;11297;42.686;23.374;2022-10-16T04:15:35;95735.94;;;12.09;63.39
22257;BME280;11297;42.686;23.374;2022-10-16T04:18:01;95736.91;;;12.13;63.00
22257;BME280;11297;42.686;23.374;2022-10-16T04:20:26;95743.09;;;12.17;62.72
22257;BME280;11297;42.686;23.374;2022-10-16T04:22:51;95737.78;;;12.22;62.88
22257;BME280;11297;42.686;23.374;2022-10-16T04:25:17;95743.47;;;12.24;62.65
22257;BME280;11297;42.686;23.374;2022-10-16T04:27:42;95736.72;;;12.23;62.46
22257;BME280;11297;42.686;23.374;2022-10-16T04:30:08;95739.50;;;12.27;62.70
22257;BME280;11297;42.686;23.374;2022-10-16T04:32:33;95741.34;;;12.26;62.38
22257;BME280;11297;42.686;23.374;2022-10-16T04:34:59;95750.50;;;12.24;62.18
22257;BME280;11297;42.686;23.374;2022-10-16T04:37:25;95742.53;;;12.20;62.25
22257;BME280;11297;42.686;23.374;2022-10-16T04:39:52;95746.00;;;12.16;61.88
22257;BME280;11297;42.686;23.374;2022-10-16T04:42:18;95747.91;;;12.10;62.02
22257;BME280;11297;42.686;23.374;2022-10-16T04:44:43;95755.25;;;12.08;62.35
22257;BME280;11297;42.686;23.374;2022-10-16T04:47:09;95758.16;;;12.07;62.33
22257;BME280;11297;42.686;23.374;2022-10-16T04:49:34;95759.78;;;12.03;62.66
22257;BME280;11297;42.686;23.374;2022-10-16T04:51:59;95758.31;;;11.97;62.43
22257;BME280;11297;42.686;23.374;2022-10-16T04:54:25;95760.66;;;11.98;62.83
22257;BME280;11297;42.686;23.374;2022-10-16T04:56:50;95759.31;;;12.01;62.58
22257;BME280;11297;42.686;23.374;2022-10-16T04:59:18;95773.28;;;12.05;62.83
22257;BME280;11297;42.686;23.374;2022-10-16T05:01:44;95767.59;;;12.03;62.76
22257;BME280;11297;42.686;23.374;2022-10-16T05:04:09;95778.47;;;12.05;62.85
22257;BME280;11297;42.686;23.374;2022-10-16T05:06:35;95776.84;;;12.09;63.01
22257;BME280;11297;42.686;23.374;2022-10-16T05:09:01;95784.09;;;12.12;63.56
22257;BME280;11297;42.686;23.374;2022-10-16T05:11:26;95780.13;;;12.28;62.81
22257;BME280;11297;42.686;23.374;2022-10-16T05:13:51;95782.63;;;12.33;62.95
22257;BME280;11297;42.686;23.374;2022-10-16T05:16:17;95783.97;;;12.43;63.06
22257;BME280;11297;42.686;23.374;2022-10-16T05:18:42;95793.25;;;12.36;62.41
22257;BME280;11297;42.686;23.374;2022-10-16T05:21:08;95785.41;;;12.49;62.90
22257;BME280;11297;42.686;23.374;2022-10-16T05:23:33;95797.81;;;12.79;71.78
22257;BME280;11297;42.686;23.374;2022-10-16T05:25:59;95800.00;;;12.50;63.97
22257;BME280;11297;42.686;23.374;2022-10-16T05:28:26;95797.38;;;12.64;63.48
22257;BME280;11297;42.686;23.374;2022-10-16T05:30:53;95792.91;;;12.64;63.17
22257;BME280;11297;42.686;23.374;2022-10-16T05:33:22;95798.31;;;12.81;62.19
22257;BME280;11297;42.686;23.374;2022-10-16T05:35:48;95793.22;;;13.11;60.34
22257;BME280;11297;42.686;23.374;2022-10-16T05:38:15;95791.59;;;13.15;60.35
22257;BME280;11297;42.686;23.374;2022-10-16T05:40:41;95789.75;;;13.38;60.36
22257;BME280;11297;42.686;23.374;2022-10-16T05:43:06;95799.63;;;13.71;59.07
22257;BME280;11297;42.686;23.374;2022-10-16T05:45:32;95801.06;;;13.55;59.25
22257;BME280;11297;42.686;23.374;2022-10-16T05:47:57;95805.22;;;13.78;58.59
22257;BME280;11297;42.686;23.374;2022-10-16T05:50:23;95801.88;;;14.16;57.57
22257;BME280;11297;42.686;23.374;2022-10-16T05:52:48;95805.78;;;14.35;56.87
22257;BME280;11297;42.686;23.374;2022-10-16T05:55:13;95810.31;;;14.51;56.58
22257;BME280;11297;42.686;23.374;2022-10-16T05:57:39;95811.50;;;14.37;57.62
22257;BME280;11297;42.686;23.374;2022-10-16T06:00:05;95820.75;;;14.43;56.61
22257;BME280;11297;42.686;23.374;2022-10-16T06:02:30;95820.50;;;14.61;56.14
22257;BME280;11297;42.686;23.374;2022-10-16T06:04:56;95820.09;;;14.93;54.42
22257;BME280;11297;42.686;23.374;2022-10-16T06:07:22;95825.06;;;15.28;53.71
22257;BME280;11297;42.686;23.374;2022-10-16T06:09:49;95832.31;;;15.56;52.69
22257;BME280;11297;42.686;23.374;2022-10-16T06:12:15;95832.75;;;15.50;53.25
22257;BME280;11297;42.686;23.374;2022-10-16T06:14:40;95834.31;;;15.51;52.85
22257;BME280;11297;42.686;23.374;2022-10-16T06:17:06;95828.88;;;15.81;52.22
22257;BME280;11297;42.686;23.374;2022-10-16T06:19:31;95830.69;;;15.97;52.16
22257;BME280;11297;42.686;23.374;2022-10-16T06:21:57;95831.75;;;16.05;51.55
22257;BME280;11297;42.686;23.374;2022-10-16T06:24:24;95830.91;;;16.38;50.15
22257;BME280;11297;42.686;23.374;2022-10-16T06:26:49;95841.94;;;16.52;50.41
22257;BME280;11297;42.686;23.374;2022-10-16T06:29:15;95845.06;;;16.82;49.30
22257;BME280;11297;42.686;23.374;2022-10-16T06:31:40;95828.25;;;16.75;48.98
22257;BME280;11297;42.686;23.374;2022-10-16T06:34:09;95840.22;;;17.13;48.05
22257;BME280;11297;42.686;23.374;2022-10-16T06:36:36;95847.78;;;18.40;66.65
22257;BME280;11297;42.686;23.374;2022-10-16T06:39:02;95858.16;;;19.43;72.30
22257;BME280;11297;42.686;23.374;2022-10-16T06:41:28;95857.50;;;19.85;55.19
22257;BME280;11297;42.686;23.374;2022-10-16T06:43:54;95845.88;;;20.75;51.63
22257;BME280;11297;42.686;23.374;2022-10-16T06:46:21;95844.44;;;20.93;44.34
22257;BME280;11297;42.686;23.374;2022-10-16T06:48:48;95847.88;;;20.51;46.83
22257;BME280;11297;42.686;23.374;2022-10-16T06:51:16;95855.31;;;20.76;45.46
22257;BME280;11297;42.686;23.374;2022-10-16T06:53:44;95862.09;;;20.73;41.67
22257;BME280;11297;42.686;23.374;2022-10-16T06:56:12;95863.31;;;20.64;42.09
22257;BME280;11297;42.686;23.374;2022-10-16T06:58:37;95863.41;;;20.52;45.66
22257;BME280;11297;42.686;23.374;2022-10-16T07:01:04;95863.53;;;21.36;50.06
22257;BME280;11297;42.686;23.374;2022-10-16T07:03:30;95862.47;;;20.91;44.32
22257;BME280;11297;42.686;23.374;2022-10-16T07:05:56;95862.66;;;20.98;43.96
22257;BME280;11297;42.686;23.374;2022-10-16T07:08:22;95872.31;;;20.32;46.18
22257;BME280;11297;42.686;23.374;2022-10-16T07:10:47;95864.03;;;20.76;44.70
22257;BME280;11297;42.686;23.374;2022-10-16T07:13:13;95869.41;;;21.29;42.24
22257;BME280;11297;42.686;23.374;2022-10-16T07:15:40;95864.47;;;21.62;47.43
22257;BME280;11297;42.686;23.374;2022-10-16T07:18:05;95871.59;;;21.96;40.98
22257;BME280;11297;42.686;23.374;2022-10-16T07:20:31;95867.59;;;21.67;39.53
22257;BME280;11297;42.686;23.374;2022-10-16T07:22:56;95871.06;;;21.53;41.05
22257;BME280;11297;42.686;23.374;2022-10-16T07:25:22;95875.13;;;21.65;42.17
22257;BME280;11297;42.686;23.374;2022-10-16T07:27:47;95870.59;;;22.04;39.09
22257;BME280;11297;42.686;23.374;2022-10-16T07:30:13;95884.41;;;22.54;48.37
22257;BME280;11297;42.686;23.374;2022-10-16T07:32:38;95872.44;;;22.85;41.05
22257;BME280;11297;42.686;23.374;2022-10-16T07:35:04;95877.16;;;23.17;44.75
22257;BME280;11297;42.686;23.374;2022-10-16T07:37:30;95862.88;;;23.00;38.28
22257;BME280;11297;42.686;23.374;2022-10-16T07:39:55;95877.53;;;23.19;43.23
22257;BME280;11297;42.686;23.374;2022-10-16T07:42:20;95876.34;;;23.39;41.49
22257;BME280;11297;42.686;23.374;2022-10-16T07:44:46;95878.78;;;23.51;37.27
22257;BME280;11297;42.686;23.374;2022-10-16T07:47:11;95886.59;;;23.41;41.67
22257;BME280;11297;42.686;23.374;2022-10-16T07:49:37;95875.00;;;23.01;37.71
22257;BME280;11297;42.686;23.374;2022-10-16T07:52:02;95881.09;;;22.82;42.68
22257;BME280;11297;42.686;23.374;2022-10-16T07:54:27;95876.44;;;23.20;37.27
22257;BME280;11297;42.686;23.374;2022-10-16T07:56:53;95883.94;;;23.41;38.98
22257;BME280;11297;42.686;23.374;2022-10-16T07:59:18;95881.78;;;23.75;39.36
22257;BME280;11297;42.686;23.374;2022-10-16T08:01:44;95883.44;;;23.87;39.46
22257;BME280;11297;42.686;23.374;2022-10-16T08:04:09;95863.88;;;23.69;39.08
22257;BME280;11297;42.686;23.374;2022-10-16T08:06:39;95891.00;;;22.63;38.43
22257;BME280;11297;42.686;23.374;2022-10-16T08:09:06;95889.03;;;23.27;41.32
22257;BME280;11297;42.686;23.374;2022-10-16T08:11:31;95883.03;;;23.59;40.45
22257;BME280;11297;42.686;23.374;2022-10-16T08:13:57;95882.38;;;23.95;36.96
22257;BME280;11297;42.686;23.374;2022-10-16T08:16:22;95895.47;;;24.10;43.79
22257;BME280;11297;42.686;23.374;2022-10-16T08:18:48;95884.19;;;24.20;34.78
22257;BME280;11297;42.686;23.374;2022-10-16T08:21:16;95876.84;;;24.39;34.83
22257;BME280;11297;42.686;23.374;2022-10-16T08:23:41;95875.09;;;24.53;37.57
22257;BME280;11297;42.686;23.374;2022-10-16T08:26:07;95870.25;;;24.62;34.88
22257;BME280;11297;42.686;23.374;2022-10-16T08:28:34;95872.56;;;24.71;34.87
22257;BME280;11297;42.686;23.374;2022-10-16T08:31:09;95861.63;;;24.79;34.07
22257;BME280;11297;42.686;23.374;2022-10-16T08:33:37;95862.38;;;25.23;33.58
22257;BME280;11297;42.686;23.374;2022-10-16T08:36:04;95870.91;;;25.56;36.42
22257;BME280;11297;42.686;23.374;2022-10-16T08:38:29;95862.97;;;25.59;33.45
22257;BME280;11297;42.686;23.374;2022-10-16T08:47:23;95860.94;;;25.36;33.67
22257;BME280;11297;42.686;23.374;2022-10-16T08:50:00;95872.75;;;25.42;36.88
22257;BME280;11297;42.686;23.374;2022-10-16T08:52:32;95867.81;;;25.47;30.41
22257;BME280;11297;42.686;23.374;2022-10-16T08:54:59;95873.16;;;25.47;30.48
22257;BME280;11297;42.686;23.374;2022-10-16T08:57:25;95875.41;;;25.42;31.64
22257;BME280;11297;42.686;23.374;2022-10-16T08:59:54;95872.41;;;25.50;30.91
22257;BME280;11297;42.686;23.374;2022-10-16T09:03:16;95869.25;;;25.27;31.20
22257;BME280;11297;42.686;23.374;2022-10-16T09:11:01;95859.84;;;25.44;31.79
22257;BME280;11297;42.686;23.374;2022-10-16T09:13:55;95858.84;;;25.65;31.34
22257;BME280;11297;42.686;23.374;2022-10-16T09:16:31;95858.66;;;25.38;30.37
22257;BME280;11297;42.686;23.374;2022-10-16T09:19:15;95844.81;;;25.11;30.98
22257;BME280;11297;42.686;23.374;2022-10-16T09:21:44;95864.34;;;25.36;32.43
22257;BME280;11297;42.686;23.374;2022-10-16T09:24:17;95865.16;;;25.40;30.84
22257;BME280;11297;42.686;23.374;2022-10-16T09:26:44;95864.03;;;25.48;31.97
22257;BME280;11297;42.686;23.374;2022-10-16T09:29:15;95861.00;;;25.53;30.33
22257;BME280;11297;42.686;23.374;2022-10-16T09:31:41;95859.88;;;25.50;31.99
22257;BME280;11297;42.686;23.374;2022-10-16T09:36:44;95859.69;;;25.90;32.08
22257;BME280;11297;42.686;23.374;2022-10-16T09:39:11;95854.84;;;26.13;30.48
22257;BME280;11297;42.686;23.374;2022-10-16T09:41:39;95860.94;;;26.13;31.04
22257;BME280;11297;42.686;23.374;2022-10-16T09:44:28;95855.94;;;26.05;29.04
22257;BME280;11297;42.686;23.374;2022-10-16T09:47:05;95860.94;;;26.13;31.90
22257;BME280;11297;42.686;23.374;2022-10-16T09:49:30;95845.34;;;26.26;30.72
22257;BME280;11297;42.686;23.374;2022-10-16T09:52:12;95852.28;;;26.54;30.96
22257;BME280;11297;42.686;23.374;2022-10-16T09:54:37;95846.50;;;26.25;30.37
22257;BME280;11297;42.686;23.374;2022-10-16T09:57:13;95842.00;;;26.67;29.16
22257;BME280;11297;42.686;23.374;2022-10-16T09:59:52;95843.47;;;26.26;29.38
22257;BME280;11297;42.686;23.374;2022-10-16T10:02:22;95844.63;;;26.36;29.23
22257;BME280;11297;42.686;23.374;2022-10-16T10:04:52;95843.91;;;26.49;31.10
22257;BME280;11297;42.686;23.374;2022-10-16T10:07:36;95832.75;;;26.09;31.64
22257;BME280;11297;42.686;23.374;2022-10-16T10:10:05;95837.63;;;25.86;31.44
22257;BME280;11297;42.686;23.374;2022-10-16T10:12:32;95836.94;;;26.13;30.63
22257;BME280;11297;42.686;23.374;2022-10-16T10:17:30;95826.16;;;25.75;29.66
22257;BME280;11297;42.686;23.374;2022-10-16T10:19:58;95825.75;;;25.02;31.80
22257;BME280;11297;42.686;23.374;2022-10-16T10:22:40;95819.09;;;25.29;32.03
22257;BME280;11297;42.686;23.374;2022-10-16T10:31:06;95819.94;;;25.50;31.17
22257;BME280;11297;42.686;23.374;2022-10-16T10:33:43;95817.41;;;25.71;29.92
22257;BME280;11297;42.686;23.374;2022-10-16T10:41:16;95811.41;;;26.02;29.76
22257;BME280;11297;42.686;23.374;2022-10-16T10:44:07;95803.50;;;26.33;32.23
22257;BME280;11297;42.686;23.374;2022-10-16T10:55:09;95799.59;;;25.96;32.74
22257;BME280;11297;42.686;23.374;2022-10-16T10:58:35;95801.09;;;25.87;34.78
22257;BME280;11297;42.686;23.374;2022-10-16T11:06:06;95788.31;;;25.35;31.81
22257;BME280;11297;42.686;23.374;2022-10-16T11:08:45;95794.00;;;25.30;34.59
22257;BME280;11297;42.686;23.374;2022-10-16T11:11:24;95782.97;;;25.28;34.08
22257;BME280;11297;42.686;23.374;2022-10-16T11:14:04;95786.38;;;25.29;34.08
22257;BME280;11297;42.686;23.374;2022-10-16T11:16:49;95786.00;;;25.30;33.25
22257;BME280;11297;42.686;23.374;2022-10-16T11:22:01;95776.78;;;25.14;30.77
22257;BME280;11297;42.686;23.374;2022-10-16T11:24:41;95788.59;;;25.13;31.95
22257;BME280;11297;42.686;23.374;2022-10-16T11:27:11;95771.53;;;24.67;32.84
22257;BME280;11297;42.686;23.374;2022-10-16T11:29:46;95765.13;;;24.29;33.19
22257;BME280;11297;42.686;23.374;2022-10-16T11:32:23;95773.81;;;24.22;35.60
22257;BME280;11297;42.686;23.374;2022-10-16T11:34:55;95772.59;;;23.48;35.52
22257;BME280;11297;42.686;23.374;2022-10-16T11:37:31;95773.31;;;23.45;36.09
22257;BME280;11297;42.686;23.374;2022-10-16T11:40:09;95778.56;;;23.12;36.26
22257;BME280;11297;42.686;23.374;2022-10-16T11:42:48;95782.16;;;22.97;39.09
22257;BME280;11297;42.686;23.374;2022-10-16T11:50:56;95781.19;;;21.18;34.98
22257;BME280;11297;42.686;23.374;2022-10-16T11:56:04;95785.41;;;21.57;37.68
22257;BME280;11297;42.686;23.374;2022-10-16T12:01:38;95787.50;;;21.67;41.92
22257;BME280;11297;42.686;23.374;2022-10-16T12:07:06;95771.94;;;22.07;38.87
22257;BME280;11297;42.686;23.374;2022-10-16T12:09:37;95771.63;;;22.30;37.26
22257;BME280;11297;42.686;23.374;2022-10-16T12:12:03;95777.09;;;22.41;40.39
22257;BME280;11297;42.686;23.374;2022-10-16T12:17:03;95781.06;;;22.50;36.41
22257;BME280;11297;42.686;23.374;2022-10-16T12:19:31;95771.91;;;22.48;34.90
22257;BME280;11297;42.686;23.374;2022-10-16T12:22:00;95778.41;;;22.50;34.74
22257;BME280;11297;42.686;23.374;2022-10-16T12:26:52;95769.31;;;22.51;36.01
22257;BME280;11297;42.686;23.374;2022-10-16T12:29:38;95771.41;;;22.39;35.55
22257;BME280;11297;42.686;23.374;2022-10-16T12:32:28;95775.34;;;22.26;36.05
22257;BME280;11297;42.686;23.374;2022-10-16T12:34:51;95771.28;;;22.32;37.31
22257;BME280;11297;42.686;23.374;2022-10-16T12:37:24;95778.28;;;21.80;40.41
22257;BME280;11297;42.686;23.374;2022-10-16T12:39:51;95779.88;;;21.84;40.83
22257;BME280;11297;42.686;23.374;2022-10-16T12:42:22;95778.91;;;21.92;37.90
22257;BME280;11297;42.686;23.374;2022-10-16T12:44:48;95785.84;;;21.81;39.22
22257;BME280;11297;42.686;23.374;2022-10-16T12:47:21;95775.19;;;21.97;39.00
22257;BME280;11297;42.686;23.374;2022-10-16T12:49:54;95776.81;;;21.82;37.48
22257;BME280;11297;42.686;23.374;2022-10-16T12:52:38;95773.31;;;21.78;38.47
22257;BME280;11297;42.686;23.374;2022-10-16T12:55:05;95774.56;;;21.84;39.36
22257;BME280;11297;42.686;23.374;2022-10-16T13:00:21;95782.94;;;21.86;41.51
22257;BME280;11297;42.686;23.374;2022-10-16T13:18:50;95780.78;;;22.14;36.85
22257;BME280;11297;42.686;23.374;2022-10-16T13:26:46;95784.56;;;21.53;34.95
22257;BME280;11297;42.686;23.374;2022-10-16T13:29:14;95783.00;;;21.71;34.01
22257;BME280;11297;42.686;23.374;2022-10-16T13:31:40;95783.50;;;21.76;33.55
22257;BME280;11297;42.686;23.374;2022-10-16T13:34:12;95779.31;;;21.75;33.73
22257;BME280;11297;42.686;23.374;2022-10-16T13:36:48;95781.16;;;21.71;33.34
22257;BME280;11297;42.686;23.374;2022-10-16T13:39:26;95784.16;;;21.70;33.22
22257;BME280;11297;42.686;23.374;2022-10-16T13:44:28;95791.69;;;21.49;33.58
22257;BME280;11297;42.686;23.374;2022-10-16T13:47:00;95795.78;;;21.47;33.77
22257;BME280;11297;42.686;23.374;2022-10-16T13:49:26;95789.44;;;21.51;34.23
22257;BME280;11297;42.686;23.374;2022-10-16T13:51:56;95789.72;;;21.46;35.53
22257;BME280;11297;42.686;23.374;2022-10-16T13:54:22;95790.09;;;21.29;36.10
22257;BME280;11297;42.686;23.374;2022-10-16T13:56:48;95784.88;;;21.33;34.84
22257;BME280;11297;42.686;23.374;2022-10-16T13:59:32;95797.53;;;21.24;33.36
22257;BME280;11297;42.686;23.374;2022-10-16T14:01:58;95792.16;;;21.20;34.98
22257;BME280;11297;42.686;23.374;2022-10-16T14:04:32;95795.56;;;21.02;33.34
22257;BME280;11297;42.686;23.374;2022-10-16T14:06:58;95792.75;;;20.95;33.76
22257;BME280;11297;42.686;23.374;2022-10-16T14:11:51;95799.50;;;20.77;33.62
22257;BME280;11297;42.686;23.374;2022-10-16T14:14:19;95810.63;;;20.67;33.82
22257;BME280;11297;42.686;23.374;2022-10-16T14:16:45;95809.41;;;20.34;33.86
22257;BME280;11297;42.686;23.374;2022-10-16T14:19:28;95805.13;;;20.14;33.95
22257;BME280;11297;42.686;23.374;2022-10-16T14:21:54;95821.47;;;20.05;34.31
22257;BME280;11297;42.686;23.374;2022-10-16T14:24:40;95819.59;;;19.90;34.24
22257;BME280;11297;42.686;23.374;2022-10-16T14:27:31;95822.41;;;19.85;34.33
22257;BME280;11297;42.686;23.374;2022-10-16T14:30:23;95829.09;;;19.67;34.58
22257;BME280;11297;42.686;23.374;2022-10-16T14:32:54;95826.41;;;19.52;35.16
22257;BME280;11297;42.686;23.374;2022-10-16T14:35:46;95824.53;;;19.52;35.76
22257;BME280;11297;42.686;23.374;2022-10-16T14:38:19;95816.59;;;19.25;35.75
22257;BME280;11297;42.686;23.374;2022-10-16T14:40:48;95828.09;;;19.32;35.89
22257;BME280;11297;42.686;23.374;2022-10-16T14:43:23;95828.56;;;19.22;35.92
22257;BME280;11297;42.686;23.374;2022-10-16T14:45:55;95823.53;;;19.17;36.51
22257;BME280;11297;42.686;23.374;2022-10-16T14:48:22;95828.47;;;19.19;36.57
22257;BME280;11297;42.686;23.374;2022-10-16T14:50:47;95816.88;;;18.84;36.51
22257;BME280;11297;42.686;23.374;2022-10-16T14:53:13;95841.56;;;18.80;37.04